KMGY/MGY METAR and TAF weather

Enter ICAO airport designator
Station Type Date Time Source
KMGY METAR 2019/02/23 00:53 UTC NOAA

KMGY 230053Z AUTO 06006KT 8SM CLR 03/M02 A3032 RMK AO2 SLP276 T00281017


Station Type Date Time Source
KMGY Decoded METAR 2019/02/23 00:53 UTC NOAA

DAYTON WRIGHT BROTHERS AIRPORT , OH, United States (KMGY) 39-36N 84-14W 289M
Feb 22, 2019 - 07:53 PM EST / 2019.02.23 0053 UTC
Wind: from the ENE (060 degrees) at 7 MPH (6 KT):0
Visibility: 8 mile(s):0
Sky conditions: clear
Temperature: 37.0 F (2.8 C)
Dew Point: 28.9 F (-1.7 C)
Relative Humidity: 72%
Pressure (altimeter): 30.32 in. Hg (1026 hPa)
ob: KMGY 230053Z AUTO 06006KT 8SM CLR 03/M02 A3032 RMK AO2 SLP276 T00281017
cycle: 1

Station Type Date Time Source
KMGY TAF UTC NOAA

Error!


Example: see airport list